Overview Statistics Trail Chart Weather Telemetry Raw packets
 

This is the latest recevied weather packets stored in our database for station/object KD7CIH. If no packets are shown the sender has not sent any weather packets the latest 10 day(s).

<< 80 81 82 83 84 85 86 >>
Time Temp. Humidity Pressure Rain* Wind** Luminosity Snow
1788118474 19.44° C 54% 1015.4 hPa 0 mm - - -
1788118175 19.44° C 52% 1015.5 hPa 0 mm - - -
1788117874 19.44° C 53% 1015.5 hPa 0 mm - - -
1788117577 18.89° C 57% 1015.5 hPa 0 mm - - -
1788117273 18.33° C 59% 1015.7 hPa 0 mm - - -
1788116973 18.33° C 59% 1015.8 hPa 0 mm - - -
1788116673 18.33° C 59% 1015.8 hPa 0 mm - - -
1788116375 17.78° C 61% 1015.8 hPa 0 mm - - -
1788116200 17.78° C 60% 1015.9 hPa 0 mm - - -
1788115773 17.22° C 62% 1015.8 hPa 0 mm - - -
1788115475 17.22° C 63% 1015.8 hPa 0 mm - - -
1788115174 17.22° C 61% 1015.9 hPa 0 mm - - -
1788115000 17.22° C 62% 1015.8 hPa 0 mm - - -
1788114575 17.22° C 63% 1015.9 hPa 0 mm - - -
1788114274 16.67° C 65% 1015.8 hPa 0 mm - - -
1788113973 16.67° C 65% 1015.8 hPa 0 mm - - -
1788113802 16.11° C 69% 1015.9 hPa 0 mm - - -
1788113374 16.11° C 70% 1015.9 hPa 0 mm - - -
1788113074 16.11° C 71% 1016 hPa 0 mm - - -
1788112773 16.11° C 71% 1015.9 hPa 0 mm - - -
1788112475 15.56° C 70% 1015.9 hPa 0 mm - - -
1788112168 15.56° C 73% 1015.8 hPa 0 mm - - -
1788111862 15° C 74% 1015.9 hPa 0 mm - - -
1788111556 15° C 72% 1015.8 hPa 0 mm - - -
1788111252 15° C 74% 1015.8 hPa 0 mm - - -

* Rain latest hour (hover to see other rain measurements)
** Current wind speed in m/s (hover to see current wind gust speed)